Home > Products > Valid Products > TAF

000
FTUS41 KRLX 210200 AAA
TAFPKB
TAF AMD
KPKB 210246Z 2103/2124 19005KT P6SM SKC
     FM210800 20005KT 5SM BR BKN025
     FM211400 22008KT 6SM SHRA BR VCTS BKN025CB
     FM211700 23009KT P6SM BKN025
     FM212100 27010KT P6SM BKN040
     FM212300 28010KT P6SM SCT040=



000
FTUS41 KRLX 210200 AAA
TAFHTS
TAF AMD
KHTS 210246Z 2103/2124 12004KT P6SM SKC
     FM210900 21006KT 4SM BR BKN025
     FM211400 23008KT 6SM SHRA BR VCTS BKN025CB
     FM211900 25010G15KT P6SM BKN025
     FM212200 27011G16KT P6SM BKN040=



000
FTUS41 KRLX 210200 AAA
TAFCRW
TAF AMD
KCRW 210246Z 2103/2124 00000KT P6SM SKC
     FM210500 19004KT 6SM BR SKC
     FM211000 20005KT 4SM BR BKN025
     FM211400 23009KT 6SM SHRA BR VCTS BKN025CB
     FM212100 24011G17KT 6SM SHRA BR BKN025
     FM212200 25010KT P6SM BKN040=



000
FTUS41 KRLX 210200 AAA
TAFEKN
TAF AMD
KEKN 210246Z 2103/2124 00000KT P6SM FEW050
      TEMPO 2103/2105 3SM BR
     FM210500 20004KT 1/4SM FG VV001
     FM211100 24007KT 3SM BR VCTS BKN035CB
     FM211500 25009G15KT 6SM SHRA BR VCTS BKN030CB=



000
FTUS41 KRLX 210200 AAA
TAFBKW
TAF AMD
KBKW 210246Z 2103/2124 00000KT P6SM SKC
     FM211400 25009KT P6SM BKN035
     FM211700 27011G17KT 6SM SHRA BR VCTS OVC025CB
     FM212000 26011G17KT 5SM TSRA BR BKN025CB
     FM212200 26010G15KT 6SM BR VCTS BKN040CB=



000
FTUS41 KRLX 210200 AAA
TAFCKB
TAF AMD
KCKB 210246Z 2103/2124 19004KT P6SM SCT250
     FM210800 19004KT 6SM BR SCT040
     FM211200 20005KT P6SM BKN025
     FM211400 22009KT 6SM SHRA BR VCTS BKN020CB
     FM212200 24009KT P6SM BKN040=



000
FTUS41 KRLX 202300
TAFEKN
TAF
KEKN 202333Z 2100/2124 VRB03KT P6SM FEW045
     FM210300 18005KT 4SM BR SCT250
     FM210500 20004KT 1/4SM FG VV001
     FM211100 24007KT 3SM BR VCTS BKN035CB
     FM211500 25009G15KT 6SM SHRA BR VCTS BKN030CB=



000
FTUS41 KRLX 202300
TAFHTS
TAF
KHTS 202333Z 2100/2124 19006KT P6SM SKC
     FM210900 21006KT 4SM BR SCT025
     FM211400 23008KT 6SM SHRA BR VCTS BKN025CB
     FM211900 25010G15KT P6SM BKN025
     FM212200 27011G16KT P6SM BKN040=



000
FTUS41 KRLX 202300
TAFCRW
TAF
KCRW 202333Z 2100/2124 17004KT P6SM FEW050 SCT250
     FM210500 18004KT 6SM BR FEW050
     FM211000 20005KT 4SM BR BKN025
     FM211400 23009KT 6SM SHRA BR VCTS BKN025CB
     FM212100 24011G17KT 6SM SHRA BR BKN025
     FM212200 25010KT P6SM BKN040=



000
FTUS41 KRLX 202300
TAFCKB
TAF
KCKB 202333Z 2100/2124 18004KT P6SM SCT250
     FM210800 19004KT 6SM BR SCT040
     FM211200 20005KT P6SM BKN025
     FM211400 22009KT 6SM SHRA BR VCTS BKN020CB
     FM212200 24009KT P6SM BKN040=



000
FTUS41 KRLX 202300
TAFPKB
TAF
KPKB 202333Z 2100/2124 18005KT P6SM SKC
     FM210800 20005KT 5SM BR BKN025
     FM211400 22008KT 6SM SHRA BR VCTS BKN025CB
     FM211700 23009KT P6SM BKN025
     FM212100 27010KT P6SM BKN040
     FM212300 28010KT P6SM SCT040=



000
FTUS41 KRLX 202300
TAFBKW
TAF
KBKW 202333Z 2100/2124 15005KT P6SM FEW050
     FM211400 25009KT P6SM BKN035
     FM211700 27011G17KT 6SM SHRA BR VCTS OVC025CB
     FM212000 26011G17KT 5SM TSRA BR BKN025CB
     FM212200 26010G15KT 6SM BR VCTS BKN040CB=



000
FTUS41 KRLX 202100 AAA
TAFHTS
TAF AMD
KHTS 202111Z 2021/2118 22006KT P6SM FEW045 SCT080
     FM202300 19005KT P6SM SCT200
     FM210700 21004KT 6SM BR SCT030
     FM210800 21002KT 4SM BR BKN080
     FM211000 21007KT P6SM BKN025
     FM211500 22008KT P6SM VCTS BKN025CB=



000
FTUS41 KRLX 202100 AAA
TAFCRW
TAF AMD
KCRW 202111Z 2021/2118 32004KT P6SM SCT040 SCT100
     FM202300 20004KT P6SM SCT250
     FM210400 18003KT 6SM BR FEW150
     FM210600 18002KT 4SM BR FEW035
     FM210900 20006KT P6SM BKN030
     FM211400 22008KT P6SM VCSH BKN025=



000
FTUS41 KRLX 202100 AAA
TAFCKB
TAF AMD
KCKB 202111Z 2021/2118 25008KT P6SM FEW045
     FM202300 19004KT P6SM SCT200
     FM210300 17004KT P6SM FEW035
     FM210800 18002KT 5SM BR SCT025
     FM211000 19003KT 6SM BR BKN035
     FM211200 20005KT P6SM BKN035
     FM211400 21008KT P6SM VCTS BKN020CB
     FM211500 22009KT 5SM SHRA BR VCTS BKN020CB=



000
FTUS41 KRLX 202100 AAA
TAFPKB
TAF AMD
KPKB 202111Z 2021/2118 17008KT P6SM SCT040
     FM202300 18006KT P6SM SCT200
     FM210300 20004KT P6SM FEW040
     FM210800 19002KT 4SM BR SCT030
     FM210900 19003KT 6SM BR BKN025
     FM211400 22008KT P6SM VCTS BKN025CB
     FM211700 24010KT P6SM BKN025=



000
FTUS41 KRLX 202100 AAA
TAFBKW
TAF AMD
KBKW 202111Z 2021/2118 14006KT P6SM SCT045 BKN080
     FM202300 17005KT P6SM SCT100
     FM211400 24009KT P6SM BKN030
     FM211600 26010G15KT 6SM SHRA BR VCTS BKN025CB=



000
FTUS41 KRLX 202100 AAA
TAFEKN
TAF AMD
KEKN 202111Z 2021/2118 29005KT P6SM SCT050
     FM210100 17004KT P6SM FEW035
     FM210300 18005KT 4SM BR FEW035
     FM210400 00000KT 1/4SM FG VV001
     FM211100 23007KT P6SM BKN030
     FM211600 25009KT 5SM SHRA BR VCTS BKN020CB=



000
FTUS41 KRLX 201700
TAFCRW
TAF
KCRW 201731Z 2018/2118 19005KT P6SM SCT050 BKN090
     FM202300 20004KT P6SM SCT250
     FM210400 18003KT 6SM BR FEW150
     FM210600 18002KT 4SM BR FEW035
     FM210900 20006KT P6SM BKN030
     FM211400 22008KT P6SM VCSH BKN025=



000
FTUS41 KRLX 201700
TAFPKB
TAF
KPKB 201731Z 2018/2118 21005KT P6SM BKN040
     FM202300 18006KT P6SM SCT200
     FM210300 20004KT P6SM FEW040
     FM210800 19002KT 4SM BR SCT030
     FM210900 19003KT 6SM BR BKN025
     FM211400 22008KT P6SM VCTS BKN025CB
     FM211700 24010KT P6SM BKN025=



000
FTUS41 KRLX 201700
TAFBKW
TAF
KBKW 201731Z 2018/2118 VRB03KT P6SM SKC
     FM211400 24009KT P6SM BKN030
     FM211600 26010G15KT 6SM SHRA BR VCTS BKN025CB=



000
FTUS41 KRLX 201700
TAFEKN
TAF
KEKN 201731Z 2018/2118 26007KT P6SM BKN045 BKN070
     FM210100 17004KT P6SM FEW035
     FM210300 18005KT 4SM BR FEW035
     FM210400 00000KT 1/4SM FG VV001
     FM211100 23007KT P6SM BKN030
     FM211600 25009KT 5SM SHRA BR VCTS BKN020CB=



000
FTUS41 KRLX 201700
TAFHTS
TAF
KHTS 201731Z 2018/2118 22006KT P6SM FEW045
     FM202300 19005KT P6SM SCT200
     FM210700 21004KT 6SM BR SCT030
     FM210800 21002KT 4SM BR BKN080
     FM211000 21007KT P6SM BKN025
     FM211500 22008KT P6SM VCTS BKN025CB=



000
FTUS41 KRLX 201700
TAFCKB
TAF
KCKB 201731Z 2018/2118 20011KT P6SM FEW045
     FM202300 19004KT P6SM SCT200
     FM210300 17004KT P6SM FEW035
     FM210800 18002KT 5SM BR SCT025
     FM211000 19003KT 6SM BR BKN035
     FM211200 20005KT P6SM BKN035
     FM211400 21008KT P6SM VCTS BKN020CB
     FM211500 22009KT 5SM SHRA BR VCTS BKN020CB=



000
FTUS41 KRLX 201500 AAA
TAFCKB
TAF AMD
KCKB 201500Z 2015/2112 VRB05KT P6SM SCT060
     FM210300 00000KT P6SM FEW050 SCT250
     FM211100 00000KT P6SM BKN040=



000
FTUS41 KRLX 201500 AAA
TAFEKN
TAF AMD
KEKN 201500Z 2015/2112 17007KT P6SM SKC
     FM210600 VRB03KT 6SM BR FEW050
     FM210800 00000KT 1SM BR FEW001
     FM210900 00000KT 1/4SM FG VV001=



000
FTUS41 KRLX 201500 AAA
TAFHTS
TAF AMD
KHTS 201500Z 2015/2112 20005KT P6SM BKN045 BKN060
     FM210200 VRB03KT P6SM FEW050
     FM211000 22007KT P6SM BKN050=



000
FTUS41 KRLX 201500 AAA
TAFPKB
TAF AMD
KPKB 201500Z 2015/2112 19007KT P6SM BKN050
     FM210300 00000KT P6SM FEW050
     FM210600 20006KT P6SM SCT040
     FM210900 19004KT P6SM BKN035=



000
FTUS41 KRLX 201500 AAA
TAFBKW
TAF AMD
KBKW 201500Z 2015/2112 18005KT P6SM FEW070
     FM201700 16004KT P6SM SCT035
     FM210200 16008G16KT P6SM FEW050
     FM211100 23007KT P6SM SCT050=



000
FTUS41 KRLX 201500 AAA
TAFCRW
TAF AMD
KCRW 201500Z 2015/2112 18008KT P6SM SCT050 SCT090
     FM211100 20004KT P6SM BKN050=



000
FTUS41 KRLX 201100
TAFEKN
TAF
KEKN 201134Z 2012/2112 VRB06KT P6SM FEW070
     FM201400 18004KT P6SM SCT050
     FM210600 VRB03KT 6SM BR FEW050
     FM210800 00000KT 1SM BR FEW001
     FM210900 00000KT 1/4SM FG VV001=



000
FTUS41 KRLX 201100
TAFHTS
TAF
KHTS 201134Z 2012/2112 00000KT P6SM FEW050 FEW060
     FM210200 VRB03KT P6SM FEW050
     FM211000 22007KT P6SM BKN050=



000
FTUS41 KRLX 201100
TAFCRW
TAF
KCRW 201134Z 2012/2112 00000KT P6SM FEW070
     FM201300 17006KT P6SM SCT040
     FM211100 20004KT P6SM BKN050=



000
FTUS41 KRLX 201100
TAFCKB
TAF
KCKB 201134Z 2012/2112 00000KT P6SM SKC
     FM210300 00000KT P6SM FEW050 SCT250
     FM211100 00000KT P6SM BKN040=



000
FTUS41 KRLX 201100
TAFPKB
TAF
KPKB 201134Z 2012/2112 17005KT P6SM FEW060
     FM210300 00000KT P6SM FEW050
     FM210600 20006KT P6SM SCT040
     FM210900 19004KT P6SM BKN035=



000
FTUS41 KRLX 201100
TAFBKW
TAF
KBKW 201134Z 2012/2112 14006KT P6SM SKC
      TEMPO 2013/2015 16007KT BKN015
     FM201500 16006KT P6SM SCT025
     FM201700 16004KT P6SM SCT035
     FM210200 16008G16KT P6SM FEW050
     FM211100 23007KT P6SM SCT050=



000
FTUS41 KRLX 201000 AAB
TAFEKN
TAF AMD
KEKN 201028Z 2010/2106 16006KT P6SM BKN050
     FM201400 20004KT P6SM SCT050=



000
FTUS41 KRLX 201000 AAB
TAFBKW
TAF AMD
KBKW 201026Z 2010/2106 15009G17KT P6SM SCT010
     FM201300 15009G17KT P6SM SCT015
      TEMPO 2013/2015 15007KT BKN015
     FM201500 16006KT P6SM SCT025
     FM201700 16004KT P6SM SCT040
     FM210200 16008G16KT P6SM SCT250=



000
FTUS41 KRLX 200800 AAA
TAFPKB
TAF AMD
KPKB 200826Z 2008/2106 16007KT P6SM FEW025 SCT040
     FM201300 18006KT P6SM SCT040
     FM201800 20007KT P6SM SCT040
     FM210200 VRB03KT P6SM FEW050=



000
FTUS41 KRLX 200800 AAA
TAFCRW
TAF AMD
KCRW 200826Z 2008/2106 VRB03KT 6SM BR FEW001
     FM201300 17006KT P6SM SCT050=



000
FTUS41 KRLX 200800 AAA
TAFBKW
TAF AMD
KBKW 200826Z 2008/2106 15011G18KT P6SM SCT010
      TEMPO 2008/2012 15007KT BKN010
     FM201300 16006KT P6SM SCT015
     FM201700 16004KT P6SM SCT040
     FM210200 16008G16KT P6SM SCT250=



000
FTUS41 KRLX 200800 AAA
TAFHTS
TAF AMD
KHTS 200826Z 2008/2106 14004KT P6SM FEW040
     FM201200 17007KT P6SM SCT050
     FM210200 VRB03KT P6SM FEW050=



000
FTUS41 KRLX 200800 AAA
TAFCKB
TAF AMD
KCKB 200826Z 2008/2106 16004KT P6SM SCT050=



000
FTUS41 KRLX 200800 AAA
TAFEKN
TAF AMD
KEKN 200826Z 2008/2106 15009KT P6SM SCT050
      TEMPO 2009/2012 BKN025
     FM201200 18004KT P6SM BKN035
     FM201400 20004KT P6SM SCT050=



000
FTUS41 KRLX 200500
TAFCKB
TAF
KCKB 200538Z 2006/2106 16004KT P6SM SCT050=



000
FTUS41 KRLX 200500
TAFPKB
TAF
KPKB 200538Z 2006/2106 16007KT P6SM SCT040
     FM200900 16005KT P6SM SCT025
     FM201300 18006KT P6SM SCT040
     FM201800 20007KT P6SM SCT040
     FM210200 VRB03KT P6SM FEW050=



000
FTUS41 KRLX 200500
TAFHTS
TAF
KHTS 200538Z 2006/2106 14004KT P6SM FEW040
     FM201200 17007KT P6SM SCT050
     FM210200 VRB03KT P6SM FEW050=



000
FTUS41 KRLX 200500
TAFCRW
TAF
KCRW 200538Z 2006/2106 17006KT P6SM SCT050=



000
FTUS41 KRLX 200500
TAFEKN
TAF
KEKN 200538Z 2006/2106 15009KT P6SM SCT035
      TEMPO 2008/2012 BKN025
     FM201200 18004KT P6SM BKN035
     FM201400 20004KT P6SM SCT050=



000
FTUS41 KRLX 200500
TAFBKW
TAF
KBKW 200538Z 2006/2106 15011G18KT P6SM SCT012
      TEMPO 2006/2010 15007KT BKN012
     FM201000 15007KT P6SM BKN008
      TEMPO 2010/2013 SCT008
     FM201300 16006KT P6SM BKN015
     FM201500 16006KT P6SM SCT015
     FM201700 16004KT P6SM SCT040
     FM210200 16008G16KT P6SM SCT250=



000
FTUS41 KRLX 200200 AAA
TAFHTS
TAF AMD
KHTS 200220Z 2002/2024 13006KT P6SM SCT050
      TEMPO 2002/2003 BKN040
     FM201000 17002KT 6SM BR SCT002 SCT080
     FM201300 17003KT 6SM HZ SCT080
     FM201500 19008KT P6SM SCT040
     FM202300 18005KT P6SM SCT080=



000
FTUS41 KRLX 200200 AAA
TAFBKW
TAF AMD
KBKW 200220Z 2002/2024 15010G20KT P6SM SCT020
     FM200300 15012G22KT P6SM BKN015
      TEMPO 2003/2004 SCT015
     FM200800 15007G15KT 6SM -DZ BR BKN008
     FM201200 17007G15KT P6SM BKN012
     FM201500 18008KT P6SM SCT025
     FM201800 18008KT P6SM SCT035=



000
FTUS41 KRLX 200200 AAA
TAFCKB
TAF AMD
KCKB 200220Z 2002/2024 14008G15KT P6SM SCT050
     FM200800 16007KT 6SM BR SCT050
     FM201400 18006KT P6SM SCT040
     FM201800 21008G15KT P6SM SCT045
     FM202300 18006KT P6SM SCT080=



000
FTUS41 KRLX 200200 AAA
TAFCRW
TAF AMD
KCRW 200220Z 2002/2024 12008G14KT P6SM SCT050
     FM200700 14006KT 6SM BR SCT080
     FM200900 15006KT 4SM BR FEW001 SCT070
     FM201300 17005KT 5SM HZ SCT002 SCT080
     FM201500 18008KT P6SM SCT040
     FM202300 17004KT P6SM SCT080=



000
FTUS41 KRLX 200200 AAA
TAFEKN
TAF AMD
KEKN 200220Z 2002/2024 15009G16KT P6SM SCT030
     FM200800 17006KT 4SM BR SCT001 SCT030
     FM201300 00000KT 5SM HZ SCT002 SCT080
     FM201500 19008KT P6SM SCT040
     FM202300 18004KT P6SM SCT050=



000
FTUS41 KRLX 200200 AAA
TAFPKB
TAF AMD
KPKB 200220Z 2002/2024 13006KT P6SM SCT045
     FM201000 16006G14KT 6SM BR SCT050
     FM201500 19010G15KT P6SM SCT040
     FM202300 17007KT P6SM SCT050=



000
FTUS41 KRLX 192300
TAFCKB
TAF
KCKB 192328Z 2000/2024 15008G15KT P6SM SCT050
     FM200800 16007KT 6SM BR SCT050
     FM201400 18006KT P6SM SCT040
     FM201800 21008G15KT P6SM SCT045
     FM202300 18006KT P6SM SCT080=



000
FTUS41 KRLX 192300
TAFBKW
TAF
KBKW 192328Z 2000/2024 13010G20KT P6SM SCT020
     FM200300 14012G22KT P6SM BKN015
     FM200800 15007G15KT 6SM -DZ BR BKN008
     FM201200 17007G15KT P6SM BKN012
     FM201500 18008KT P6SM SCT025
     FM201800 18008KT P6SM SCT035=



000
FTUS41 KRLX 192300
TAFEKN
TAF
KEKN 192328Z 2000/2024 16009G16KT P6SM SCT030
     FM200800 17006KT 4SM BR SCT001 SCT030
     FM201300 00000KT 5SM HZ SCT002 SCT080
     FM201500 19008KT P6SM SCT040
     FM202300 18004KT P6SM SCT050=



000
FTUS41 KRLX 192300
TAFPKB
TAF
KPKB 192328Z 2000/2024 13007KT P6SM VCSH BKN045
     FM200200 13006KT P6SM SCT045
     FM201000 16006G14KT 6SM BR SCT050
     FM201500 19010G15KT P6SM SCT040
     FM202300 17007KT P6SM SCT050=



000
FTUS41 KRLX 192300
TAFHTS
TAF
KHTS 192328Z 2000/2024 VRB03KT P6SM SKC
     FM200100 13006KT P6SM SCT050
      TEMPO 2001/2003 BKN040
     FM201000 17002KT 6SM BR SCT002 SCT080
     FM201300 17003KT 6SM HZ SCT080
     FM201500 19008KT P6SM SCT040
     FM202300 18005KT P6SM SCT080=



000
FTUS41 KRLX 192300
TAFCRW
TAF
KCRW 192328Z 2000/2024 12008G14KT P6SM SCT040
     FM200700 14006KT 6SM BR SCT080
     FM200900 15006KT 4SM BR FEW001 SCT070
     FM201300 17005KT 5SM HZ SCT002 SCT080
     FM201500 18008KT P6SM SCT040
     FM202300 17004KT P6SM SCT080=



000
FTUS41 KRLX 192100 AAB
TAFCRW
TAF AMD
KCRW 192146Z 1922/2018 11007KT P6SM VCSH BKN040
     FM192300 12008G14KT P6SM SCT040
     FM200700 14006KT P6SM SCT080
     FM200900 00000KT 3SM BR FEW001 SCT080
     FM201000 00000KT 2SM BR BKN001
     FM201300 00000KT 5SM BR SCT002 SCT080
     FM201500 18005KT P6SM SCT040=



000
FTUS41 KRLX 192000 AAA
TAFEKN
TAF AMD
KEKN 192041Z 1921/2018 16009G16KT P6SM SCT040
     FM200400 16008G15KT P6SM SCT045
     FM200700 VRB03KT 5SM BR SCT080
     FM200900 00000KT 2SM BR BKN002
     FM201300 00000KT 5SM BR SCT002 SCT080
     FM201500 18008KT P6SM SCT040=



000
FTUS41 KRLX 192000 AAA
TAFCRW
TAF AMD
KCRW 192021Z 1920/2018 09007KT P6SM SCT035
     FM192300 12008G14KT P6SM SCT040
     FM200700 14006KT P6SM SCT080
     FM200900 00000KT 3SM BR FEW001 SCT080
     FM201000 00000KT 2SM BR BKN001
     FM201300 00000KT 5SM BR SCT002 SCT080
     FM201500 18005KT P6SM SCT040=



000
FTUS41 KRLX 191900 AAB
TAFBKW
TAF AMD
KBKW 191939Z 1920/2018 13012G19KT P6SM VCSH SCT035
      TEMPO 1920/1921 BKN030
     FM192100 13010G20KT P6SM BKN025
     FM200300 14012G20KT P6SM BKN015
     FM200900 15007G15KT 6SM -DZ BR BKN008
     FM201200 18007G15KT P6SM BKN012
     FM201500 18010KT P6SM SCT040=



000
FTUS41 KRLX 191800 AAA
TAFBKW
TAF AMD
KBKW 191816Z 1918/2018 13008G14KT P6SM VCSH SCT015 BKN040
     FM192300 13008KT P6SM SCT035
     FM200300 14007KT P6SM BKN015
     FM200900 16005KT 6SM BR BKN008
     FM201200 18007KT P6SM BKN012
     FM201500 18010KT P6SM SCT040=



000
FTUS41 KRLX 191800 RRB
TAFCKB
TAF
KCKB 191810Z 1918/2018 11004KT P6SM SCT040
     FM200200 15002KT P6SM FEW045
     FM200800 00000KT 6SM BR SCT050
     FM201500 18006KT P6SM SCT040=



000
FTUS41 KRLX 191800 RRB
TAFCRW
TAF
KCRW 191810Z 1918/2018 07002KT P6SM SCT035
     FM191900 11004KT P6SM BKN040
     FM192300 00000KT P6SM SCT040
     FM200700 00000KT 6SM BR SCT080
     FM200900 00000KT 3SM BR FEW001 SCT080
     FM201000 00000KT 2SM BR BKN001
     FM201300 00000KT 5SM BR SCT002 SCT080
     FM201500 18005KT P6SM SCT040=



000
FTUS41 KRLX 191800 RRB
TAFEKN
TAF
KEKN 191810Z 1918/2018 13009KT P6SM SCT040
     FM192300 14004KT P6SM SCT040
     FM200400 00000KT 6SM BR SCT080
     FM200700 00000KT 5SM BR SCT080
     FM200900 00000KT 2SM BR BKN002
     FM201300 00000KT 5SM BR SCT002 SCT080
     FM201500 18007KT P6SM SCT040=



000
FTUS41 KRLX 191800 RRB
TAFHTS
TAF
KHTS 191810Z 1918/2018 05005KT P6SM SCT045
     FM200200 13006KT P6SM SCT080
     FM201000 17002KT 6SM BR SCT080
     FM201100 00000KT 3SM BR SCT002
     FM201300 17003KT 6SM BR SCT080
     FM201500 18006KT P6SM SCT040=



000
FTUS41 KRLX 191800 RRB
TAFPKB
TAF
KPKB 191810Z 1918/2018 05005KT P6SM SCT045
     FM200200 13003KT P6SM SCT080
     FM201500 18006KT P6SM SCT040=



000
FTUS41 KRLX 191800 RRB
TAFBKW
TAF
KBKW 191810Z 1918/2018 13008G14KT P6SM VCSH SCT015 BKN035
      TEMPO 1918/1921 BKN015
     FM192300 13008KT P6SM SCT035
     FM200300 14007KT P6SM BKN015
     FM200900 16005KT 6SM BR BKN008
     FM201200 18007KT P6SM BKN012
     FM201500 18010KT P6SM SCT040=



000
FTUS41 KRLX 191700 RRA
TAFPKB
TAF
KPKB 191744Z 1918/2018 05005KT P6SM SCT045
     FM200200 13003KT P6SM SCT080
     FM201500 18006KT P6SM SCT040=



000
FTUS41 KRLX 191700 RRA
TAFEKN
TAF
KEKN 191744Z 1918/2018 13009KT P6SM SCT040
     FM192300 14004KT P6SM SCT040
     FM200400 00000KT 6SM BR SCT080
     FM200700 00000KT 5SM BR SCT080
     FM200900 00000KT 2SM BR BKN002
     FM201300 00000KT 5SM BR SCT002 SCT080
     FM201500 18007KT P6SM SCT040=



000
FTUS41 KRLX 191700 RRA
TAFBKW
TAF
KBKW 191744Z 1918/2018 13008G14KT P6SM VCSH SCT015 BKN035
      TEMPO 1918/1921 BKN015
     FM192300 13008KT P6SM SCT035
     FM200300 14007KT P6SM BKN015
     FM200900 16005KT 6SM BR BKN008
     FM201200 18007KT P6SM BKN012
     FM201500 18010KT P6SM SCT040=



000
FTUS41 KRLX 191700 RRA
TAFCRW
TAF
KCRW 191744Z 1918/2018 07002KT P6SM SCT035
     FM191900 11004KT P6SM BKN040
     FM192300 00000KT P6SM SCT040
     FM200700 00000KT 6SM BR SCT080
     FM200900 00000KT 3SM BR FEW001 SCT080
     FM201000 00000KT 2SM BR BKN001
     FM201300 00000KT 5SM BR SCT002 SCT080
     FM201500 18005KT P6SM SCT040=



000
FTUS41 KRLX 191700 RRA
TAFHTS
TAF
KHTS 191744Z 1918/2018 05005KT P6SM SCT045
     FM200200 13006KT P6SM SCT080
     FM201000 17002KT 6SM BR SCT080
     FM201100 00000KT 3SM BR SCT002
     FM201300 17003KT 6SM BR SCT080
     FM201500 18006KT P6SM SCT040=



000
FTUS41 KRLX 191700 RRA
TAFCKB
TAF
KCKB 191744Z 1918/2018 11004KT P6SM SCT040
     FM200200 15002KT P6SM FEW045
     FM200800 00000KT 6SM BR SCT050
     FM201500 18006KT P6SM SCT040=



000
FTUS41 KRLX 191400 AAA
TAFPKB
TAF AMD
KPKB 191455Z 1915/2012 00000KT P6SM SCT250
     FM191800 VRB03KT P6SM SCT035=



000
FTUS41 KRLX 191400 AAA
TAFHTS
TAF AMD
KHTS 191455Z 1915/2012 05005KT P6SM SCT050
     FM200200 13006KT P6SM SCT070
     FM201000 17004KT 6SM BR SCT250
     FM201100 VRB03KT 3SM BR SCT250=



000
FTUS41 KRLX 191400 AAA
TAFCKB
TAF AMD
KCKB 191455Z 1915/2012 11004KT P6SM SCT040
     FM200200 15004KT P6SM FEW050
     FM200800 00000KT 6SM BR SCT050=



000
FTUS41 KRLX 191400 AAB
TAFEKN
TAF AMD
KEKN 191455Z 1915/2012 13004KT P6SM SCT035
     FM191900 14006KT P6SM BKN035
     FM192200 14005KT P6SM SCT035
     FM200300 15004KT 6SM BR FEW035
     FM200700 00000KT 5SM BR SCT025=



000
FTUS41 KRLX 191400 AAA
TAFCRW
TAF AMD
KCRW 191455Z 1915/2012 10003KT P6SM SCT035
     FM191900 11004KT P6SM VCSH BKN040
     FM192300 00000KT P6SM SCT040
     FM200700 00000KT 6SM BR SCT050
     FM200900 00000KT 3SM BR FEW001 SCT050
     FM201000 00000KT 2SM BR SCT001 SCT050=



000
FTUS41 KRLX 191400 AAA
TAFBKW
TAF AMD
KBKW 191455Z 1915/2012 13008G14KT P6SM VCSH SCT015 BKN035
      TEMPO 1915/1917 BKN015
     FM200000 13008KT P6SM SCT015
     FM200300 14010G15KT P6SM SCT015
     FM200800 16006KT P6SM SCT025=



000
FTUS41 KRLX 191300 AAA
TAFEKN
TAF AMD
KEKN 191317Z 1913/2012 00000KT 1SM BR OVC002
     FM191400 VRB02KT 3SM BR SCT002
     FM191430 13004KT P6SM SCT035
     FM191900 14006KT P6SM BKN035
     FM192200 14005KT P6SM SCT035
     FM200300 15004KT 6SM BR FEW035
     FM200700 00000KT 5SM BR SCT025=



000
FTUS41 KRLX 191100
TAFEKN
TAF
KEKN 191120Z 1912/2012 00000KT 1/2SM FG VV001
      TEMPO 1912/1913 4SM BR SCT002
     FM191300 13004KT P6SM SCT035
     FM191900 14006KT P6SM BKN035
     FM192200 14005KT P6SM SCT035
     FM200300 15004KT 6SM BR FEW035
     FM200700 00000KT 5SM BR SCT025=



000
FTUS41 KRLX 191100
TAFHTS
TAF
KHTS 191120Z 1912/2012 05005KT P6SM FEW050
     FM200200 13006KT P6SM SCT070
     FM201000 17004KT 6SM BR SCT250
     FM201100 VRB03KT 3SM BR SCT250=



000
FTUS41 KRLX 191100
TAFCRW
TAF
KCRW 191120Z 1912/2012 00000KT 1/4SM FG VV001
      TEMPO 1912/1913 2SM BR SCT002
     FM191300 00000KT 4SM BR SCT002 SCT010
     FM191400 00000KT P6SM SCT025
      TEMPO 1914/1917 BKN025
     FM191700 11003KT P6SM SCT035
     FM200700 00000KT 6SM BR SCT050
     FM200900 00000KT 3SM BR FEW001 SCT050
     FM201000 00000KT 2SM BR SCT001 SCT050=



000
FTUS41 KRLX 191100
TAFPKB
TAF
KPKB 191120Z 1912/2012 00000KT P6SM SCT250
     FM191800 VRB03KT P6SM SCT035=



000
FTUS41 KRLX 191100
TAFCKB
TAF
KCKB 191120Z 1912/2012 VRB03KT P6SM SCT200
     FM191500 11004KT P6SM SCT040
     FM200200 15004KT P6SM FEW050
     FM200800 00000KT 6SM BR SCT050=



000
FTUS41 KRLX 191100
TAFBKW
TAF
KBKW 191120Z 1912/2012 00000KT P6SM BKN025
     FM191400 13005KT P6SM BKN012
     FM191800 13008KT P6SM BKN025
     FM192100 12009KT P6SM BKN015
     FM200000 13006KT P6SM SCT015
     FM200300 14010G15KT P6SM SCT015
     FM200800 16006KT P6SM SCT025=



000
FTUS41 KRLX 190900 AAB
TAFEKN
TAF AMD
KEKN 190956Z 1910/2006 00000KT 5SM BR SCT002 BKN050
      TEMPO 1910/1913 1/4SM FG VV001
     FM191400 13004KT P6SM SCT035
     FM191900 14006KT P6SM BKN035
     FM192200 14005KT P6SM SCT035
     FM200300 15004KT 6SM BR FEW035=



000
FTUS41 KRLX 190800 AAA
TAFCKB
TAF AMD
KCKB 190829Z 1908/2006 VRB03KT P6SM BKN060
      TEMPO 1910/1912 5SM BR SCT070
     FM191500 11004KT P6SM SCT040
     FM200200 15004KT P6SM SCT250
     FM200400 15004KT P6SM FEW050=



000
FTUS41 KRLX 190800 AAA
TAFBKW
TAF AMD
KBKW 190829Z 1908/2006 00000KT P6SM BKN050
     FM191100 00000KT P6SM BKN025
     FM191400 13005KT P6SM -DZ BKN010
     FM191800 13008KT P6SM BKN025
     FM192100 12009KT P6SM BKN015
     FM200000 13006KT P6SM SCT015
     FM200300 14010G15KT P6SM SCT015=



000
FTUS41 KRLX 190800 AAA
TAFPKB
TAF AMD
KPKB 190829Z 1908/2006 03003KT P6SM SKC
     FM191800 VRB03KT P6SM SCT040=



000
FTUS41 KRLX 190800 AAA
TAFCRW
TAF AMD
KCRW 190829Z 1908/2006 00000KT 2SM BR SCT001 SCT040
      TEMPO 1908/1912 1/2SM FG BKN001
     FM191300 00000KT 4SM BR SCT015
     FM191400 00000KT P6SM SCT025
      TEMPO 1914/1917 BKN025
     FM191700 11003KT P6SM SCT035=



000
FTUS41 KRLX 190800 AAA
TAFEKN
TAF AMD
KEKN 190829Z 1908/2006 00000KT 5SM BR BKN050
      TEMPO 1908/1911 4SM BR SCT050
     FM191100 00000KT 4SM BR SCT015 BKN050
      TEMPO 1911/1913 1SM BR SCT001
     FM191400 13004KT P6SM SCT035
     FM191900 14006KT P6SM BKN035
     FM192200 14005KT P6SM SCT035
     FM200300 15004KT 6SM BR FEW035=



000
FTUS41 KRLX 190800 AAA
TAFHTS
TAF AMD
KHTS 190829Z 1908/2006 03003KT P6SM SKC
     FM191400 05003KT P6SM SCT200
     FM192300 06005KT P6SM FEW050
     FM200200 13006KT P6SM SCT070=



000
FTUS41 KRLX 190500
TAFPKB
TAF
KPKB 190539Z 1906/2006 00000KT P6SM SKC
     FM190900 00000KT 4SM BR FEW001
     FM191300 00000KT P6SM SCT250
     FM191800 VRB03KT P6SM SCT040=



000
FTUS41 KRLX 190500
TAFHTS
TAF
KHTS 190539Z 1906/2006 00000KT P6SM SCT250
     FM190800 00000KT 4SM BR FEW001
     FM191300 VRB03KT 5SM BR SCT010
     FM191400 05003KT P6SM SCT200
     FM192300 06005KT P6SM FEW050
     FM200200 13006KT P6SM SCT070=



000
FTUS41 KRLX 190500
TAFCRW
TAF
KCRW 190539Z 1906/2006 00000KT 4SM BR FEW001
      TEMPO 1906/1908 1SM BR SCT001
     FM190800 00000KT 2SM BR SCT001 SCT040
      TEMPO 1908/1912 1/2SM FG BKN001
     FM191300 00000KT 4SM BR SCT015
     FM191400 00000KT P6SM SCT025
      TEMPO 1914/1917 BKN025
     FM191700 11003KT P6SM SCT035=



000
FTUS41 KRLX 190500
TAFBKW
TAF
KBKW 190539Z 1906/2006 00000KT P6SM BKN050
     FM190900 00000KT P6SM BKN025
     FM191100 00000KT 6SM -DZ BR BKN015
     FM191400 13005KT P6SM -DZ BKN010
     FM191800 13008KT P6SM BKN025
     FM192100 12009KT P6SM BKN015
     FM200000 13006KT P6SM SCT015
     FM200300 14010G15KT P6SM SCT015=



000
FTUS41 KRLX 190500
TAFCKB
TAF
KCKB 190539Z 1906/2006 00000KT P6SM SCT200
     FM190900 00000KT 5SM BR FEW001
     FM191300 VRB03KT P6SM BKN200
     FM191500 11004KT P6SM SCT040
     FM200200 15004KT P6SM SCT250
     FM200400 15004KT P6SM FEW050=



000
FTUS41 KRLX 190500
TAFEKN
TAF
KEKN 190539Z 1906/2006 00000KT 6SM BR BKN060
      TEMPO 1906/1908 4SM BR SCT060
     FM190800 00000KT 2SM BR SCT015 BKN050
      TEMPO 1908/1912 1/2SM FG VV001
     FM191300 00000KT 2SM BR SCT008
     FM191400 13003KT 4SM BR SCT025
     FM191500 13004KT P6SM SCT035
     FM191900 14006KT P6SM BKN035
     FM192200 14005KT P6SM SCT035
     FM200000 00000KT P6SM SCT040
     FM200300 15004KT 6SM BR FEW035=



000
FTUS41 KRLX 190500 AAA
TAFCRW
TAF AMD
KCRW 190521Z 1905/1924 00000KT 4SM BR FEW001
     FM190800 00000KT 2SM BR SCT001 SCT040
      TEMPO 1908/1912 1/2SM FG BKN001
     FM191300 00000KT 4SM BR BKN020
     FM191400 12004KT P6SM SCT025
     FM191700 12004KT P6SM SCT035=



000
FTUS41 KRLX 190200 AAA
TAFCKB
TAF AMD
KCKB 190241Z 1903/1924 00000KT P6SM SKC
     FM190800 00000KT 5SM BR SKC
     FM191000 00000KT 2SM BR FEW001
     FM191300 00000KT P6SM SKC
     FM191500 08004KT P6SM SCT040=



000
FTUS41 KRLX 190200 AAA
TAFHTS
TAF AMD
KHTS 190241Z 1903/1924 VRB03KT P6SM SKC
     FM190800 VRB03KT 4SM BR FEW001
     FM191300 VRB03KT 5SM BR SCT010
     FM191400 VRB03KT P6SM SKC
     FM191800 11004KT P6SM FEW040=



000
FTUS41 KRLX 190200 AAA
TAFEKN
TAF AMD
KEKN 190241Z 1903/1924 00000KT P6SM BKN045
     FM190500 00000KT 6SM BR FEW001 BKN045
     FM190800 00000KT 2SM BR SCT001 BKN045
      TEMPO 1908/1912 1/2SM FG BKN001
     FM191300 VRB03KT 2SM BR SCT010
     FM191400 VRB03KT P6SM SCT025
     FM191600 15005KT P6SM BKN030
     FM192100 17005KT P6SM BKN035
     FM192200 16005KT P6SM SCT035=



000
FTUS41 KRLX 190200 AAA
TAFPKB
TAF AMD
KPKB 190241Z 1903/1924 00000KT P6SM SKC
     FM190900 00000KT 4SM BR FEW001
     FM191300 00000KT P6SM SKC
     FM191700 VRB03KT P6SM SCT040=



000
FTUS41 KRLX 190200 AAA
TAFBKW
TAF AMD
KBKW 190241Z 1903/1924 VRB03KT P6SM SCT040
      TEMPO 1904/1908 BKN035
     FM190900 VRB03KT P6SM BKN025
     FM191100 12004KT 6SM BR BKN015
     FM191300 13006KT P6SM -DZ BKN010
     FM191600 13007KT P6SM -DZ BKN015
     FM191800 13007KT P6SM BKN025
     FM192000 13008KT P6SM BKN020=



000
FTUS41 KRLX 190200 AAA
TAFCRW
TAF AMD
KCRW 190241Z 1903/1924 VRB03KT P6SM SCT050
     FM190500 00000KT 6SM BR SCT045
     FM190800 00000KT 2SM BR SCT001 SCT040
      TEMPO 1908/1912 1/2SM FG BKN001
     FM191300 00000KT 4SM BR BKN020
     FM191400 12004KT P6SM SCT025
     FM191700 12004KT P6SM SCT035=



000
FTUS41 KRLX 182300
TAFCKB
TAF
KCKB 182338Z 1900/1924 00000KT P6SM SKC
     FM190800 00000KT 5SM BR SKC
     FM191000 00000KT 2SM BR FEW001
     FM191300 00000KT P6SM SKC
     FM191500 08004KT P6SM SCT040=



000
FTUS41 KRLX 182300
TAFPKB
TAF
KPKB 182338Z 1900/1924 00000KT P6SM SKC
     FM190900 00000KT 4SM BR FEW001
     FM191300 00000KT P6SM SKC
     FM191700 VRB03KT P6SM SCT040=



000
FTUS41 KRLX 182300
TAFHTS
TAF
KHTS 182338Z 1900/1924 VRB03KT P6SM SKC
     FM190800 VRB03KT 4SM BR FEW001
     FM191300 VRB03KT 5SM BR SCT010
     FM191400 VRB03KT P6SM SKC
     FM191800 11004KT P6SM FEW040=



000
FTUS41 KRLX 182300
TAFBKW
TAF
KBKW 182338Z 1900/1924 VRB03KT P6SM SCT040
      TEMPO 1904/1908 BKN035
     FM190900 VRB03KT P6SM BKN015
     FM191100 12004KT 6SM BR BKN015
     FM191300 13006KT P6SM -DZ BKN010
     FM191600 13007KT P6SM -DZ BKN015
     FM191800 13007KT P6SM BKN025
     FM192000 13008KT P6SM BKN020=



000
FTUS41 KRLX 182300
TAFCRW
TAF
KCRW 182338Z 1900/1924 VRB03KT P6SM SCT050
     FM190200 00000KT P6SM SCT200
     FM190400 00000KT 4SM BR SCT250
     FM190700 00000KT 3/4SM BR SCT001
     FM190900 00000KT 1/2SM FG VV001
     FM191300 00000KT 1 1/2SM BR BKN008
     FM191400 12004KT P6SM SCT020
     FM191700 12004KT P6SM SCT035=



000
FTUS41 KRLX 182300
TAFEKN
TAF
KEKN 182338Z 1900/1924 00000KT P6SM BKN045
     FM190500 00000KT 4SM BR FEW001
     FM190700 00000KT 1/2SM FG BKN001
     FM191300 VRB03KT 1 1/2SM BR SCT010
     FM191400 VRB03KT P6SM SCT025
     FM191600 15005KT P6SM BKN030
     FM192100 17005KT P6SM BKN035
     FM192200 16005KT P6SM SCT035=



000
FTUS41 KRLX 181700 CCA
TAFBKW
TAF COR
KBKW 181737Z 1818/1918 36006KT P6SM FEW030 OVC080
     FM182100 35005KT P6SM SCT070
     FM190900 13004KT P6SM BKN009
     FM191100 13007KT 6SM -DZ BKN008=



000
FTUS41 KRLX 181700
TAFCKB
TAF
KCKB 181732Z 1818/1918 35004KT P6SM SCT045
     FM190700 00000KT 2SM BR SCT250
     FM191000 00000KT 3/4SM BR SCT001 SCT045
     FM191230 00000KT 5SM BR SCT045
     FM191300 VRB03KT P6SM SCT045=



000
FTUS41 KRLX 181700
TAFHTS
TAF
KHTS 181732Z 1818/1918 VRB03KT P6SM SCT045
     FM190100 VRB03KT P6SM SCT250
     FM190500 00000KT 6SM BR SCT250
     FM190800 VRB03KT 1 1/2SM BR SCT250
     FM190900 VRB03KT 1/2SM FG VV001
     FM191230 00000KT 1SM BR SCT001 SCT250
     FM191300 VRB03KT P6SM SCT250=



000
FTUS41 KRLX 181700
TAFPKB
TAF
KPKB 181732Z 1818/1918 01005KT P6SM SCT045
     FM190500 00000KT 4SM BR FEW200
     FM190700 00000KT 1/2SM FG VV001
     FM191300 00000KT 1 1/2SM BR SCT250
     FM191330 VRB03KT P6SM FEW045=



000
FTUS41 KRLX 181700
TAFBKW
TAF
KBKW 181732Z 1818/1918 33004KT P6SM BKN080
     FM182100 35005KT P6SM SCT070
     FM190900 13004KT P6SM BKN010
     FM191100 13007KT 6SM -DZ BKN010=



000
FTUS41 KRLX 181700
TAFCRW
TAF
KCRW 181732Z 1818/1918 VRB03KT P6SM SCT050
     FM190500 00000KT 4SM BR FEW050
     FM190600 00000KT 2SM BR FEW050
     FM190700 00000KT 1/2SM FG VV001
     FM191300 00000KT 1SM BR SCT001 SCT040
     FM191400 00000KT P6SM SCT040=



000
FTUS41 KRLX 181700
TAFEKN
TAF
KEKN 181732Z 1818/1918 33005KT P6SM BKN250
     FM190400 00000KT 4SM BR SCT060
     FM190500 00000KT 1SM BR SCT001 SCT060
     FM190600 00000KT 4SM BR BKN060
     FM191200 VRB04KT P6SM SCT060=



000
FTUS41 KRLX 181500 AAA
TAFHTS
TAF AMD
KHTS 181501Z 1815/1912 00000KT P6SM SKC
     FM190900 00000KT 4SM BR BKN001=



000
FTUS41 KRLX 181500 AAA
TAFCKB
TAF AMD
KCKB 181501Z 1815/1912 02008KT P6SM SKC
     FM182200 VRB03KT P6SM SCT140=



000
FTUS41 KRLX 181500 AAA
TAFPKB
TAF AMD
KPKB 181501Z 1815/1912 04006KT P6SM SKC
     FM181600 VRB03KT P6SM FEW040
     FM182200 VRB03KT P6SM FEW150
     FM191000 00000KT 3SM BR SKC=



000
FTUS41 KRLX 181500 AAA
TAFBKW
TAF AMD
KBKW 181501Z 1815/1912 01006KT P6SM FEW022
     FM181600 00000KT P6SM SCT030
     FM182100 35005KT P6SM BKN035
     FM182200 36004KT P6SM SCT140=



000
FTUS41 KRLX 181500 AAA
TAFEKN
TAF AMD
KEKN 181501Z 1815/1912 00000KT P6SM FEW004 SCT045
     FM190100 00000KT P6SM BKN250
     FM190600 00000KT 4SM BR SCT040
     FM191100 00000KT 2SM BR SCT001=



000
FTUS41 KRLX 181500 AAA
TAFCRW
TAF AMD
KCRW 181501Z 1815/1912 00000KT P6SM BKN009 BKN100
     FM181530 00000KT P6SM SCT009 BKN100
     FM181700 VRB03KT P6SM SCT040
     FM190100 00000KT P6SM BKN250
     FM190800 00000KT 3SM BR SCT001=



000
FTUS41 KRLX 181100
TAFCKB
TAF
KCKB 181140Z 1812/1912 00000KT 1/4SM FG VV001
     FM181300 00000KT 2SM BR BKN003
     FM181330 00000KT 4SM BR SCT030
     FM181500 00000KT P6SM SCT050
     FM182200 VRB03KT P6SM SCT140=



000
FTUS41 KRLX 181100
TAFBKW
TAF
KBKW 181140Z 1812/1912 01003KT P6SM OVC015
     FM181600 00000KT P6SM SCT030
     FM182100 35005KT P6SM BKN030
     FM182200 36004KT P6SM SCT140=



000
FTUS41 KRLX 181100
TAFHTS
TAF
KHTS 181140Z 1812/1912 00000KT P6SM BKN100 BKN120
     FM181300 00000KT 4SM BR FEW022
     FM181400 VRB03KT P6SM SKC
     FM190900 00000KT 4SM BR BKN001=



000
FTUS41 KRLX 181100
TAFEKN
TAF
KEKN 181140Z 1812/1912 00000KT 4SM BR BKN002 BKN060
     FM181400 00000KT P6SM SCT025
     FM190100 00000KT P6SM BKN250
     FM190600 00000KT 4SM BR SCT040
     FM191100 00000KT 2SM BR SCT001=



000
FTUS41 KRLX 181100
TAFCRW
TAF
KCRW 181140Z 1812/1912 00000KT 2SM BR OVC004
     FM181400 00000KT 5SM BR BKN020
     FM181600 00000KT P6SM BKN040
     FM181700 VRB03KT P6SM SCT040
     FM190100 00000KT P6SM BKN250
     FM190800 00000KT 3SM BR SCT001=



000
FTUS41 KRLX 181100
TAFPKB
TAF
KPKB 181140Z 1812/1912 36003KT P6SM SKC
     FM181300 00000KT 4SM BR FEW001
     FM181400 00000KT P6SM SKC
     FM181600 VRB03KT P6SM FEW040
     FM182200 VRB03KT P6SM FEW150
     FM191000 00000KT 3SM BR SKC=



000
FTUS41 KRLX 180800 AAA
TAFBKW
TAF AMD
KBKW 180844Z 1809/1906 00000KT 1SM BR BKN001 OVC025
     FM181200 00000KT 3SM BR BKN008
     FM181400 00000KT P6SM BKN015
     FM181600 00000KT P6SM SCT030
     FM182100 35005KT P6SM BKN030
     FM182200 36004KT P6SM SCT140=



000
FTUS41 KRLX 180800 AAA
TAFEKN
TAF AMD
KEKN 180843Z 1809/1906 00000KT 6SM BR BKN004 OVC008
     FM181100 00000KT 1SM BR BKN002 BKN010
     FM181500 00000KT P6SM SCT025
     FM190100 00000KT P6SM BKN250=



000
FTUS41 KRLX 180800 AAA
TAFCKB
TAF AMD
KCKB 180842Z 1809/1906 00000KT 1/2SM FG OVC001
     FM181400 00000KT 4SM BR SCT030
     FM181500 00000KT P6SM SCT050
     FM182200 VRB03KT P6SM SCT140=



000
FTUS41 KRLX 180800 AAA
TAFPKB
TAF AMD
KPKB 180841Z 1809/1906 33003KT 6SM BR BKN050 BKN090
     FM181300 00000KT 4SM BR FEW022
     FM181400 00000KT P6SM SKC
     FM181600 VRB03KT P6SM FEW040
     FM182200 VRB03KT P6SM FEW150=



000
FTUS41 KRLX 180800 CCA
TAFCRW
TAF COR
KCRW 180841Z 1809/1906 00000KT 1/2SM FG BKN001
     FM181400 00000KT 5SM BR BKN020
     FM181600 00000KT P6SM BKN040
     FM181700 VRB03KT P6SM SCT040
     FM190100 00000KT P6SM BKN250=



000
FTUS41 KRLX 180800 AAA
TAFHTS
TAF AMD
KHTS 180840Z 1809/1906 00000KT 6SM BR SKC
      TEMPO 1809/1811 4SM BR SCT002
     FM181300 00000KT 4SM BR FEW022
     FM181400 VRB03KT P6SM SKC=



000
FTUS41 KRLX 180800 AAA
TAFCRW
TAF AMD
KCRW 180839Z 1809/1906 00000KT 2SM BR FEW001 SCT030
     FM181030 00000KT 3/4SM BR BKN002
     FM181400 00000KT 5SM BR BKN020
     FM181600 00000KT P6SM BKN040
     FM181700 VRB03KT P6SM SCT040
     FM190100 00000KT P6SM BKN250=



000
FTUS41 KRLX 180500
TAFCKB
TAF
KCKB 180525Z 1806/1906 00000KT 6SM BR BKN050
     FM180800 00000KT 3SM BR SCT003
     FM180900 00000KT 1/2SM FG OVC003
     FM181400 00000KT 4SM BR SCT030
     FM181500 00000KT P6SM SCT050
     FM182200 VRB03KT P6SM SCT140=



000
FTUS41 KRLX 180500
TAFBKW
TAF
KBKW 180525Z 1806/1906 00000KT 6SM BR SCT012 SCT025
     FM180800 00000KT 4SM BR BKN012
     FM181000 00000KT 3SM BR BKN008
     FM181400 00000KT P6SM BKN015
     FM181600 00000KT P6SM SCT030
     FM182100 35005KT P6SM BKN030
     FM182200 36004KT P6SM SCT140=



000
FTUS41 KRLX 180500
TAFPKB
TAF
KPKB 180525Z 1806/1906 00000KT 6SM BR SKC
     FM180700 00000KT 1SM BR SCT002
      TEMPO 1808/1812 1/4SM FG BKN002
     FM181300 00000KT 4SM BR FEW022
     FM181400 00000KT P6SM SKC
     FM181600 VRB03KT P6SM FEW040
     FM182200 VRB03KT P6SM FEW150=



000
FTUS41 KRLX 180500
TAFCRW
TAF
KCRW 180525Z 1806/1906 00000KT 5SM BR SCT040
     FM180700 00000KT 1/2SM FG BKN002
     FM181300 00000KT 3/4SM BR BKN001 BKN010
     FM181400 00000KT 5SM BR BKN020
     FM181600 00000KT P6SM BKN040
     FM181700 VRB03KT P6SM SCT040
     FM190100 00000KT P6SM BKN250=



000
FTUS41 KRLX 180500
TAFEKN
TAF
KEKN 180525Z 1806/1906 00000KT 6SM BR FEW050
     FM180800 00000KT 1SM BR VV001
     FM181300 00000KT 3SM BR SCT001 BKN010
     FM181500 00000KT P6SM SCT025
     FM190100 00000KT P6SM BKN250=



000
FTUS41 KRLX 180500
TAFHTS
TAF
KHTS 180525Z 1806/1906 00000KT 4SM BR SKC
     FM180700 00000KT 1/2SM FG BKN002
      TEMPO 1807/1811 4SM BR SCT002
     FM181300 00000KT 4SM BR FEW022
     FM181400 VRB03KT P6SM SKC=



    US Dept of Commerce
    National Oceanic and Atmospheric Administration
    National Weather Service
    1325 East West Highway
    Silver Spring, MD 20910
    Page Author: NWS Internet Services Team
Disclaimer
Information Quality
Credits
Glossary
Privacy Policy
Freedom of Information Act (FOIA)
About Us
Career Opportunities